Time;durP1;ratioP1;P1;durP2;ratioP2;P2;SDS_P1;SDS_P2;PMS_P1;PMS_P2;Temp;Humidity;BMP_temperature;BMP_pressure;BME280_temperature;BME280_humidity;BME280_pressure;Samples;Min_cycle;Max_cycle;Signal;HPM_P1;HPM_P2
2022/10/03 00:00:13;;;;;;;9.07;2.13;;;8.00;99.90;;;;;;5111125;28;20216;-76
2022/10/03 00:02:44;;;;;;;8.93;2.30;;;7.90;99.90;;;;;;5110486;28;20177;-76
2022/10/03 00:05:42;;;;;;;6.47;2.53;;;7.90;99.90;;;;;;5114115;28;20176;-75
2022/10/03 00:08:42;;;;;;;8.80;2.17;;;7.90;99.90;;;;;;5113719;28;20177;-75
2022/10/03 00:11:27;;;;;;;9.33;2.30;;;7.80;99.90;;;;;;5112922;28;20208;-76
2022/10/03 00:14:03;;;;;;;8.00;2.07;;;7.70;99.90;;;;;;5112024;28;20250;-76
2022/10/03 00:16:43;;;;;;;7.03;2.00;;;7.70;99.90;;;;;;5113736;27;20173;-75
2022/10/03 00:19:24;;;;;;;6.40;2.37;;;7.70;99.90;;;;;;5114776;27;20766;-76
2022/10/03 00:21:49;;;;;;;11.60;2.57;;;7.70;99.90;;;;;;5114780;28;20188;-76
2022/10/03 00:25:19;;;;;;;6.13;2.53;;;7.60;99.90;;;;;;5112944;28;20225;-75
2022/10/03 00:28:19;;;;;;;7.03;2.20;;;7.60;99.90;;;;;;5070213;28;20542;-76
2022/10/03 00:31:12;;;;;;;8.80;2.23;;;7.60;99.90;;;;;;5114715;28;20280;-75
2022/10/03 00:34:08;;;;;;;7.80;2.03;;;7.60;99.90;;;;;;5110535;28;20177;-75
2022/10/03 00:37:14;;;;;;;9.07;2.50;;;7.50;99.90;;;;;;5112937;28;20180;-75
2022/10/03 00:39:57;;;;;;;9.33;2.67;;;7.50;99.90;;;;;;5075206;28;20213;-75
2022/10/03 00:42:40;;;;;;;7.63;2.33;;;7.50;99.90;;;;;;5111125;28;20219;-75
2022/10/03 00:45:42;;;;;;;6.23;2.47;;;7.50;99.90;;;;;;5074949;28;20167;-76
2022/10/03 00:48:56;;;;;;;7.30;2.53;;;7.40;99.90;;;;;;5110204;28;20173;-76
2022/10/03 00:51:46;;;;;;;5.37;2.30;;;7.40;99.90;;;;;;5114224;28;20197;-76
2022/10/03 00:54:30;;;;;;;6.73;2.43;;;7.40;99.90;;;;;;5111588;28;20223;-75
2022/10/03 00:57:26;;;;;;;5.70;2.53;;;7.30;99.90;;;;;;5113530;28;20184;-76
2022/10/03 01:00:06;;;;;;;8.83;2.00;;;7.30;99.90;;;;;;5115511;28;20190;-76
2022/10/03 01:02:38;;;;;;;4.73;2.30;;;7.20;99.90;;;;;;5110831;28;20174;-75
2022/10/03 01:05:07;;;;;;;9.00;2.43;;;7.30;99.90;;;;;;5111865;28;20180;-76
2022/10/03 01:08:01;;;;;;;7.20;2.23;;;7.20;99.90;;;;;;5113909;28;20260;-75
2022/10/03 01:10:49;;;;;;;6.77;2.53;;;7.20;99.90;;;;;;5087235;28;20225;-76
2022/10/03 01:13:35;;;;;;;7.10;2.40;;;7.20;99.90;;;;;;5111124;28;20303;-76
2022/10/03 01:16:15;;;;;;;7.20;2.50;;;7.20;99.90;;;;;;5113747;28;20170;-76
2022/10/03 01:18:51;;;;;;;6.10;2.17;;;7.10;99.90;;;;;;5115106;28;20652;-75
2022/10/03 01:21:42;;;;;;;7.57;2.30;;;7.10;99.90;;;;;;5112216;28;20180;-76
2022/10/03 01:24:18;;;;;;;5.80;2.60;;;7.10;99.90;;;;;;5112114;28;20310;-75
2022/10/03 01:27:06;;;;;;;6.50;2.40;;;7.00;99.90;;;;;;5110482;28;20178;-76
2022/10/03 01:32:56;;;;;;;5.83;2.87;;;7.00;99.90;;;;;;5109398;28;20701;-76
2022/10/03 01:35:46;;;;;;;10.80;2.47;;;7.00;99.90;;;;;;5113307;28;20174;-76
2022/10/03 01:38:19;;;;;;;7.07;1.90;;;6.90;99.90;;;;;;5109489;28;20173;-76
2022/10/03 01:40:50;;;;;;;6.40;2.17;;;6.90;99.90;;;;;;5113512;28;20201;-75
2022/10/03 01:43:22;;;;;;;7.23;2.63;;;6.90;99.90;;;;;;5112578;28;20173;-76
2022/10/03 01:46:11;;;;;;;7.63;2.33;;;6.90;99.90;;;;;;5105910;28;20227;-75
2022/10/03 01:48:51;;;;;;;9.70;2.80;;;6.90;99.90;;;;;;5073871;28;20151;-75
2022/10/03 01:51:43;;;;;;;7.63;2.50;;;6.90;99.90;;;;;;5092607;28;20246;-76
2022/10/03 01:54:29;;;;;;;4.60;2.43;;;6.80;99.90;;;;;;5112559;28;20221;-75
2022/10/03 01:57:24;;;;;;;7.53;3.07;;;6.80;99.90;;;;;;5111795;28;20170;-76
2022/10/03 02:00:07;;;;;;;6.33;2.20;;;6.80;99.90;;;;;;5114263;28;20694;-75
2022/10/03 02:02:51;;;;;;;5.40;2.50;;;6.80;99.90;;;;;;5108960;28;20226;-75
2022/10/03 02:05:35;;;;;;;9.47;2.60;;;6.80;99.90;;;;;;5113135;28;20199;-76
2022/10/03 02:08:16;;;;;;;5.77;2.27;;;6.70;99.90;;;;;;5111545;28;20177;-77
2022/10/03 02:10:52;;;;;;;4.60;2.30;;;6.70;99.90;;;;;;5104923;28;20203;-75
2022/10/03 02:13:22;;;;;;;12.77;2.37;;;6.70;99.90;;;;;;5110116;28;20172;-75
2022/10/03 02:16:09;;;;;;;9.03;2.40;;;6.70;99.90;;;;;;5111472;28;20174;-75
2022/10/03 02:18:54;;;;;;;4.07;2.43;;;6.70;99.90;;;;;;5112435;28;20558;-76
2022/10/03 02:21:23;;;;;;;4.63;2.13;;;6.70;99.90;;;;;;5110972;28;20728;-76
2022/10/03 02:24:17;;;;;;;4.93;2.00;;;6.70;99.90;;;;;;5111058;28;20185;-76
2022/10/03 02:27:20;;;;;;;4.03;2.27;;;6.70;99.90;;;;;;5111444;28;20180;-76
2022/10/03 02:30:10;;;;;;;5.13;2.20;;;6.70;99.90;;;;;;5112206;28;20197;-76
2022/10/03 02:32:57;;;;;;;8.07;2.67;;;6.70;99.90;;;;;;5083464;28;20258;-76
2022/10/03 02:36:10;;;;;;;8.13;2.43;;;6.70;99.90;;;;;;5112395;28;20261;-76
2022/10/03 02:39:09;;;;;;;8.83;2.50;;;6.70;99.90;;;;;;5101354;28;20338;-76
2022/10/03 02:42:17;;;;;;;5.77;2.27;;;6.70;99.90;;;;;;5082847;28;20212;-76
2022/10/03 02:44:54;;;;;;;6.00;2.43;;;6.70;99.90;;;;;;5109661;28;20188;-75
2022/10/03 02:47:55;;;;;;;5.17;2.40;;;6.70;99.90;;;;;;5100966;28;20213;-76
2022/10/03 02:50:21;;;;;;;4.87;2.00;;;6.70;99.90;;;;;;5112143;28;20208;-76
2022/10/03 02:53:00;;;;;;;4.30;2.40;;;6.70;99.90;;;;;;5111656;28;20177;-76
2022/10/03 02:55:58;;;;;;;5.43;2.20;;;6.60;99.90;;;;;;5112581;28;20168;-75
2022/10/03 02:59:01;;;;;;;7.03;2.30;;;6.60;99.90;;;;;;5111119;28;20174;-76
2022/10/03 03:02:25;;;;;;;6.27;2.20;;;6.50;99.90;;;;;;5107761;28;20173;-76
2022/10/03 03:04:50;;;;;;;3.20;2.17;;;6.50;99.90;;;;;;5080288;28;20196;-76
2022/10/03 03:07:43;;;;;;;8.10;2.30;;;6.50;99.90;;;;;;5110030;28;20601;-75
2022/10/03 03:10:28;;;;;;;7.37;2.37;;;6.50;99.90;;;;;;5105335;28;20205;-75
2022/10/03 03:13:07;;;;;;;6.23;2.23;;;6.40;99.90;;;;;;5108909;28;20697;-75
2022/10/03 03:15:45;;;;;;;4.97;2.10;;;6.40;99.90;;;;;;5075770;28;20182;-76
2022/10/03 03:18:31;;;;;;;4.30;1.93;;;6.40;99.90;;;;;;5102321;28;20181;-75
2022/10/03 03:21:22;;;;;;;4.00;2.00;;;6.30;99.90;;;;;;5109141;28;20218;-76
2022/10/03 03:24:08;;;;;;;2.53;1.70;;;6.30;99.90;;;;;;5113161;28;20203;-76
2022/10/03 03:26:55;;;;;;;3.87;2.80;;;6.30;99.90;;;;;;5112026;28;20658;-76
2022/10/03 03:29:24;;;;;;;13.13;2.80;;;6.40;99.90;;;;;;5112062;28;20612;-76
2022/10/03 03:32:14;;;;;;;11.37;2.57;;;6.30;99.90;;;;;;5111232;28;20209;-76
2022/10/03 03:34:49;;;;;;;3.33;2.27;;;6.30;99.90;;;;;;5112486;28;20227;-75
2022/10/03 03:37:53;;;;;;;6.43;2.43;;;6.40;99.90;;;;;;5111892;28;20184;-75
2022/10/03 03:40:22;;;;;;;6.67;2.47;;;6.30;99.90;;;;;;5110010;28;20288;-76
2022/10/03 03:42:50;;;;;;;7.47;2.80;;;6.40;99.90;;;;;;5108084;28;20217;-75
2022/10/03 03:45:28;;;;;;;9.57;2.10;;;6.30;99.90;;;;;;5109722;28;20174;-75
2022/10/03 03:48:11;;;;;;;8.63;2.27;;;6.20;99.90;;;;;;5091676;28;20219;-76
2022/10/03 03:50:55;;;;;;;3.43;1.67;;;6.20;99.90;;;;;;5110841;28;20828;-75
2022/10/03 03:53:43;;;;;;;3.83;1.90;;;6.30;99.90;;;;;;5116427;28;20150;-75
2022/10/03 03:56:33;;;;;;;6.93;2.10;;;6.30;99.90;;;;;;5114202;28;20173;-76
2022/10/03 03:59:01;;;;;;;4.67;2.07;;;6.30;99.90;;;;;;5113581;28;20180;-76
2022/10/03 04:02:03;;;;;;;5.13;2.43;;;6.30;99.90;;;;;;5113646;28;20681;-76
2022/10/03 04:04:40;;;;;;;6.87;2.27;;;6.40;99.90;;;;;;5113454;28;20173;-75
2022/10/03 04:07:12;;;;;;;5.27;2.27;;;6.40;99.90;;;;;;5114285;28;20557;-75
2022/10/03 04:09:54;;;;;;;7.63;2.30;;;6.50;99.90;;;;;;5114715;28;20197;-77
2022/10/03 04:12:56;;;;;;;10.40;2.50;;;6.40;99.90;;;;;;5114949;28;20554;-75
2022/10/03 04:15:29;;;;;;;5.10;2.10;;;6.50;99.90;;;;;;5112114;28;20178;-76
2022/10/03 04:21:38;;;;;;;7.30;2.50;;;6.60;99.90;;;;;;5091198;22;20271;-80
2022/10/03 04:24:12;;;;;;;11.70;2.27;;;6.70;99.90;;;;;;5077588;28;20175;-80
2022/10/03 04:26:44;;;;;;;7.27;2.13;;;6.70;99.90;;;;;;5064357;28;20183;-81
2022/10/03 04:29:33;;;;;;;5.77;2.43;;;6.80;99.90;;;;;;5057357;28;20191;-81
2022/10/03 04:32:12;;;;;;;7.23;2.13;;;6.80;99.90;;;;;;5036799;28;20212;-81
2022/10/03 04:34:54;;;;;;;6.17;2.20;;;6.80;99.90;;;;;;5039627;28;20152;-81
2022/10/03 04:37:30;;;;;;;5.80;2.13;;;6.80;99.90;;;;;;5054508;28;20275;-80
2022/10/03 04:40:09;;;;;;;6.70;2.10;;;6.90;99.90;;;;;;5048283;28;20246;-80
2022/10/03 04:43:09;;;;;;;6.30;2.40;;;6.90;99.90;;;;;;5036859;28;20187;-80
2022/10/03 04:45:40;;;;;;;3.90;1.83;;;6.90;99.90;;;;;;5040782;28;20191;-81
2022/10/03 04:48:35;;;;;;;8.70;2.13;;;6.90;99.90;;;;;;5057172;28;20183;-81
2022/10/03 04:51:23;;;;;;;7.73;2.10;;;7.00;99.90;;;;;;5052491;28;20685;-80
2022/10/03 04:54:01;;;;;;;3.73;1.97;;;7.00;99.90;;;;;;5039159;28;20682;-81
2022/10/03 04:56:39;;;;;;;14.03;2.67;;;7.00;99.90;;;;;;5039107;28;20183;-81
2022/10/03 04:59:35;;;;;;;5.27;2.30;;;7.10;99.90;;;;;;5042259;28;20179;-79
2022/10/03 05:02:13;;;;;;;6.97;2.40;;;7.10;99.90;;;;;;5056559;28;20188;-80
2022/10/03 05:05:11;;;;;;;5.03;2.10;;;7.10;99.90;;;;;;5038351;28;20203;-80
2022/10/03 05:08:13;;;;;;;7.17;2.20;;;7.10;99.90;;;;;;5055616;28;20658;-78
2022/10/03 05:10:38;;;;;;;4.63;2.37;;;7.10;99.90;;;;;;5030877;28;20233;-80
2022/10/03 05:13:41;;;;;;;6.63;2.17;;;7.20;99.90;;;;;;5056131;28;20171;-80
2022/10/03 05:16:22;;;;;;;7.23;2.33;;;7.10;99.90;;;;;;5050055;28;20214;-79
2022/10/03 05:19:18;;;;;;;6.40;2.10;;;7.20;99.90;;;;;;5035218;28;20634;-80
2022/10/03 05:22:09;;;;;;;7.73;2.30;;;7.10;99.90;;;;;;5035745;28;20694;-80
2022/10/03 05:25:10;;;;;;;5.50;1.97;;;7.20;99.90;;;;;;5046285;28;20227;-80
2022/10/03 05:27:47;;;;;;;3.90;2.23;;;7.20;99.90;;;;;;5049577;28;20193;-80
2022/10/03 05:30:25;;;;;;;3.23;1.90;;;7.30;99.90;;;;;;5062561;28;20207;-79
2022/10/03 05:33:06;;;;;;;5.83;2.20;;;7.30;99.90;;;;;;5069023;28;20242;-79
2022/10/03 05:35:53;;;;;;;6.30;2.47;;;7.30;99.90;;;;;;5069194;28;20210;-79
2022/10/03 05:38:47;;;;;;;7.97;2.33;;;7.30;99.90;;;;;;5063628;28;20202;-82
2022/10/03 05:41:15;;;;;;;4.27;1.83;;;7.30;99.90;;;;;;5060106;28;20194;-81
2022/10/03 05:43:57;;;;;;;9.50;2.60;;;7.30;99.90;;;;;;5060289;28;20242;-80
2022/10/03 05:46:38;;;;;;;5.90;2.10;;;7.40;99.90;;;;;;5059404;28;20179;-80
2022/10/03 05:49:31;;;;;;;7.03;2.47;;;7.30;99.90;;;;;;5045462;28;20214;-81
2022/10/03 05:52:20;;;;;;;8.40;2.87;;;7.40;99.90;;;;;;5050480;28;20715;-81
2022/10/03 05:55:03;;;;;;;4.43;2.60;;;7.40;99.90;;;;;;5050697;28;20178;-79
2022/10/03 05:57:40;;;;;;;6.60;2.63;;;7.40;99.90;;;;;;5042147;28;20229;-82
2022/10/03 06:00:19;;;;;;;6.43;2.33;;;7.50;99.90;;;;;;5038694;28;20203;-82
2022/10/03 06:03:20;;;;;;;4.07;2.40;;;7.50;99.90;;;;;;5053953;28;20195;-81
2022/10/03 06:06:19;;;;;;;7.60;2.37;;;7.60;99.90;;;;;;5045855;28;20271;-81
2022/10/03 06:09:15;;;;;;;6.53;2.20;;;7.60;99.90;;;;;;5052448;28;20179;-81
2022/10/03 06:12:16;;;;;;;7.60;2.30;;;7.70;99.90;;;;;;5050328;28;20619;-81
2022/10/03 06:15:15;;;;;;;4.87;2.57;;;7.70;99.90;;;;;;5020370;28;20215;-81
2022/10/03 06:18:15;;;;;;;5.63;2.27;;;7.70;99.90;;;;;;5038554;28;20180;-81
2022/10/03 06:20:59;;;;;;;10.63;2.40;;;7.80;99.90;;;;;;5008564;28;20224;-81
2022/10/03 06:23:46;;;;;;;7.93;2.50;;;7.80;99.90;;;;;;5046806;28;20708;-82
2022/10/03 06:26:53;;;;;;;3.27;1.93;;;7.90;99.90;;;;;;5043122;28;20661;-81
2022/10/03 06:29:50;;;;;;;4.07;2.60;;;7.90;99.90;;;;;;5055230;28;20769;-81
2022/10/03 06:32:40;;;;;;;7.57;2.50;;;8.00;99.90;;;;;;5039612;28;20200;-81
2022/10/03 06:35:28;;;;;;;4.13;2.17;;;8.00;99.90;;;;;;5052135;28;20180;-81
2022/10/03 06:38:31;;;;;;;6.07;2.77;;;8.00;99.90;;;;;;5047761;28;20179;-81
2022/10/03 06:41:19;;;;;;;3.07;2.20;;;8.00;99.90;;;;;;5049358;28;20206;-81
2022/10/03 06:44:00;;;;;;;11.17;2.53;;;8.00;99.90;;;;;;5046975;28;20186;-80
2022/10/03 06:47:02;;;;;;;4.40;2.10;;;8.10;99.90;;;;;;5054375;28;20180;-80
2022/10/03 06:49:46;;;;;;;5.63;2.40;;;8.10;99.90;;;;;;5042885;28;20235;-81
2022/10/03 06:52:48;;;;;;;7.23;2.90;;;8.10;99.90;;;;;;5041475;28;20211;-80
2022/10/03 06:55:41;;;;;;;12.33;2.53;;;8.10;99.90;;;;;;5037025;28;20175;-81
2022/10/03 06:58:38;;;;;;;6.37;2.63;;;8.20;99.90;;;;;;5040649;28;20183;-81
2022/10/03 07:01:41;;;;;;;11.60;2.80;;;8.20;99.90;;;;;;5055340;28;20261;-80
2022/10/03 07:04:28;;;;;;;10.17;2.93;;;8.30;99.90;;;;;;5054873;28;20240;-79
2022/10/03 07:07:21;;;;;;;6.50;2.33;;;8.40;99.90;;;;;;5041809;28;20504;-81
2022/10/03 07:10:11;;;;;;;4.87;1.87;;;8.50;99.90;;;;;;5051779;28;20198;-81
2022/10/03 07:13:05;;;;;;;6.27;2.20;;;8.60;99.90;;;;;;5045721;28;20291;-81
2022/10/03 07:15:52;;;;;;;5.43;2.60;;;8.60;99.90;;;;;;5036609;28;20176;-81
2022/10/03 07:18:17;;;;;;;8.00;2.30;;;8.70;99.90;;;;;;5035489;28;20187;-81
2022/10/03 07:21:13;;;;;;;4.17;1.97;;;8.80;99.90;;;;;;5037132;28;20212;-80
2022/10/03 07:24:05;;;;;;;3.90;2.47;;;8.80;99.90;;;;;;5047990;28;20731;-81
2022/10/03 07:27:05;;;;;;;10.07;2.63;;;8.80;99.90;;;;;;5054668;28;20204;-80
2022/10/03 07:29:56;;;;;;;6.23;2.50;;;9.00;99.90;;;;;;5058237;28;20180;-77
2022/10/03 07:32:30;;;;;;;8.07;3.13;;;9.10;99.90;;;;;;5025928;28;20734;-78
2022/10/03 07:35:01;;;;;;;11.13;3.87;;;9.20;99.90;;;;;;5049888;28;20602;-79
2022/10/03 07:40:53;;;;;;;13.00;5.63;;;9.40;99.90;;;;;;5055285;28;20288;-79
2022/10/03 07:43:39;;;;;;;9.70;5.40;;;9.50;99.90;;;;;;5047542;28;20188;-78
2022/10/03 07:46:24;;;;;;;15.60;5.83;;;9.60;99.90;;;;;;5055333;28;20330;-78
2022/10/03 07:49:11;;;;;;;11.90;5.37;;;9.70;99.90;;;;;;5052269;28;20210;-78
2022/10/03 07:52:07;;;;;;;18.03;7.20;;;9.80;99.90;;;;;;5060112;28;20289;-74
2022/10/03 07:55:00;;;;;;;14.87;6.30;;;9.90;99.90;;;;;;5038893;28;20211;-78
2022/10/03 07:57:39;;;;;;;17.73;6.77;;;9.90;99.90;;;;;;5039977;28;20606;-77
2022/10/03 08:00:21;;;;;;;16.73;6.90;;;10.00;99.90;;;;;;5040732;28;20199;-77
2022/10/03 08:03:02;;;;;;;15.70;6.40;;;10.00;99.90;;;;;;5053285;28;20229;-77
2022/10/03 08:05:45;;;;;;;14.77;6.33;;;10.10;99.90;;;;;;5056537;28;20527;-77
2022/10/03 08:08:53;;;;;;;11.97;6.47;;;10.10;99.90;;;;;;5053107;28;20181;-79
2022/10/03 08:11:25;;;;;;;11.93;4.97;;;10.10;99.90;;;;;;5061299;28;20372;-79
2022/10/03 08:14:30;;;;;;;10.00;5.93;;;10.10;99.90;;;;;;5062305;28;20156;-79
2022/10/03 08:17:34;;;;;;;17.77;7.47;;;10.10;99.90;;;;;;5048264;28;20271;-79
2022/10/03 08:20:15;;;;;;;20.53;7.83;;;10.20;99.90;;;;;;5059547;28;20207;-79
2022/10/03 08:23:04;;;;;;;20.30;9.47;;;10.20;99.90;;;;;;5057048;28;20183;-79
2022/10/03 08:26:13;;;;;;;20.70;8.47;;;10.30;99.90;;;;;;5060073;28;20160;-78
2022/10/03 08:28:42;;;;;;;23.80;8.40;;;10.40;99.90;;;;;;5021541;28;20573;-78
2022/10/03 08:32:04;;;;;;;18.00;7.93;;;10.50;99.90;;;;;;5050507;28;20207;-79
2022/10/03 08:35:02;;;;;;;20.40;8.77;;;10.60;99.90;;;;;;5037072;28;20195;-78
2022/10/03 08:37:33;;;;;;;25.60;9.10;;;10.60;99.90;;;;;;5059412;28;20167;-78
2022/10/03 08:40:34;;;;;;;19.50;9.13;;;10.70;99.90;;;;;;5059288;28;20230;-79
2022/10/03 08:43:03;;;;;;;21.33;8.37;;;10.80;99.90;;;;;;5059009;28;20621;-76
2022/10/03 08:45:44;;;;;;;18.83;8.80;;;11.00;99.90;;;;;;5060153;28;20637;-78
2022/10/03 08:48:43;;;;;;;22.33;8.63;;;11.00;99.90;;;;;;5060080;28;20173;-79
2022/10/03 08:51:30;;;;;;;24.77;10.40;;;11.10;99.90;;;;;;5058826;28;20230;-78
2022/10/03 08:53:56;;;;;;;23.53;10.57;;;11.10;99.90;;;;;;5061296;28;20254;-77
2022/10/03 08:56:47;;;;;;;19.80;9.90;;;11.20;99.90;;;;;;5059974;28;20302;-79
2022/10/03 08:59:47;;;;;;;33.70;11.53;;;11.40;99.90;;;;;;5056677;28;20160;-79
2022/10/03 09:02:28;;;;;;;27.47;11.73;;;11.50;99.90;;;;;;5059884;28;20234;-79
2022/10/03 09:05:02;;;;;;;28.63;13.07;;;11.60;99.90;;;;;;5058239;28;20270;-79
2022/10/03 09:07:43;;;;;;;33.30;16.40;;;11.70;99.90;;;;;;5056154;28;20183;-79
2022/10/03 09:10:30;;;;;;;38.23;15.53;;;11.70;99.90;;;;;;5059882;28;20294;-79
2022/10/03 09:13:25;;;;;;;35.77;15.00;;;11.80;99.90;;;;;;5058658;28;20259;-79
2022/10/03 09:16:28;;;;;;;31.90;14.07;;;11.90;99.90;;;;;;5058106;28;20318;-79
2022/10/03 09:19:03;;;;;;;26.70;12.37;;;11.90;99.90;;;;;;5048784;28;20187;-78
2022/10/03 09:21:41;;;;;;;26.73;11.30;;;12.00;99.90;;;;;;5048785;28;20218;-79
2022/10/03 09:24:25;;;;;;;25.57;11.20;;;12.00;99.90;;;;;;5048962;28;20657;-78
2022/10/03 09:27:23;;;;;;;36.27;13.97;;;12.10;99.90;;;;;;5043485;28;20626;-75
2022/10/03 09:30:00;;;;;;;35.00;13.40;;;12.20;99.90;;;;;;5049399;28;20164;-75
2022/10/03 09:32:57;;;;;;;30.80;12.87;;;12.30;99.90;;;;;;5040387;28;20299;-79
2022/10/03 09:35:41;;;;;;;32.13;15.07;;;12.30;99.90;;;;;;5036707;28;20266;-75
2022/10/03 09:38:25;;;;;;;40.87;14.50;;;12.40;99.90;;;;;;5039356;28;20187;-79
2022/10/03 09:41:20;;;;;;;28.03;13.17;;;12.50;99.90;;;;;;5040659;28;20290;-76
2022/10/03 09:44:13;;;;;;;26.80;11.67;;;12.60;99.90;;;;;;5044899;28;20676;-80
2022/10/03 09:47:21;;;;;;;28.80;11.43;;;12.70;99.90;;;;;;5043778;28;20173;-73
2022/10/03 09:49:48;;;;;;;25.67;10.03;;;12.80;99.90;;;;;;5041320;28;20175;-77
2022/10/03 09:52:53;;;;;;;24.83;8.93;;;12.90;99.90;;;;;;5043261;28;20191;-76
2022/10/03 09:55:33;;;;;;;14.83;7.50;;;13.00;99.90;;;;;;5052629;28;20246;-76
2022/10/03 09:58:22;;;;;;;20.53;7.73;;;13.10;99.90;;;;;;5056345;28;20171;-78
2022/10/03 10:01:07;;;;;;;17.90;7.30;;;13.20;99.90;;;;;;5054484;28;20264;-77
2022/10/03 10:03:56;;;;;;;21.80;7.93;;;13.20;99.90;;;;;;5055358;28;20179;-78
2022/10/03 10:06:56;;;;;;;14.33;7.00;;;13.40;99.90;;;;;;5054571;28;20171;-78
2022/10/03 10:09:44;;;;;;;12.03;5.70;;;13.50;99.90;;;;;;5054514;28;20196;-77
2022/10/03 10:12:48;;;;;;;13.07;4.87;;;13.70;99.90;;;;;;5054948;28;20214;-78
2022/10/03 10:15:32;;;;;;;13.47;5.53;;;13.80;99.90;;;;;;5021085;28;20670;-77
2022/10/03 10:18:27;;;;;;;12.03;5.10;;;13.90;99.90;;;;;;5055413;28;20168;-77
2022/10/03 10:21:02;;;;;;;16.13;6.03;;;14.00;99.90;;;;;;5071436;22;20242;-83
2022/10/03 10:23:30;;;;;;;13.27;4.70;;;14.10;99.90;;;;;;5058026;28;20644;-82
2022/10/03 10:26:41;;;;;;;13.60;4.20;;;14.10;99.90;;;;;;5058489;28;20258;-82
2022/10/03 10:29:15;;;;;;;19.10;4.43;;;14.20;99.90;;;;;;5059347;28;20152;-82
2022/10/03 10:32:02;;;;;;;14.33;4.07;;;14.30;99.90;;;;;;5058163;28;20618;-83
2022/10/03 10:34:54;;;;;;;9.60;4.00;;;14.40;99.90;;;;;;5058450;28;20567;-81
2022/10/03 10:37:53;;;;;;;12.40;4.53;;;14.50;99.90;;;;;;5056583;28;20163;-82
2022/10/03 10:40:46;;;;;;;11.50;3.70;;;14.70;99.90;;;;;;5056641;28;20159;-81
2022/10/03 10:43:45;;;;;;;9.17;3.47;;;14.70;99.90;;;;;;5056139;28;20156;-81
2022/10/03 10:46:48;;;;;;;8.73;3.40;;;14.80;99.90;;;;;;5055090;28;20209;-81
2022/10/03 10:49:56;;;;;;;7.87;2.53;;;14.80;99.90;;;;;;5056546;28;20194;-81
2022/10/03 10:52:50;;;;;;;9.77;2.53;;;14.80;99.90;;;;;;5054954;28;20199;-81
2022/10/03 10:55:54;;;;;;;12.13;2.93;;;14.90;99.90;;;;;;5020093;28;20729;-81
2022/10/03 10:59:12;;;;;;;5.67;2.10;;;15.00;99.90;;;;;;5055511;28;20179;-81
2022/10/03 11:01:47;;;;;;;7.20;2.30;;;15.00;99.90;;;;;;5059444;28;20261;-81
2022/10/03 11:04:57;;;;;;;6.50;1.70;;;15.00;99.90;;;;;;5058439;28;20197;-82
2022/10/03 11:07:51;;;;;;;5.13;1.67;;;15.10;99.90;;;;;;5059488;28;20183;-81
2022/10/03 11:10:51;;;;;;;5.57;1.40;;;15.20;99.90;;;;;;5061065;28;20159;-81
2022/10/03 11:13:19;;;;;;;9.47;1.70;;;15.30;1.00;;;;;;5062212;28;20252;-82
2022/10/03 11:16:22;;;;;;;4.97;1.40;;;15.30;1.00;;;;;;5064900;28;20541;-82
2022/10/03 11:19:25;;;;;;;4.50;1.20;;;15.40;1.00;;;;;;5065447;28;20245;-82
2022/10/03 11:22:22;;;;;;;8.13;1.50;;;15.40;23.20;;;;;;5067478;28;20266;-82
2022/10/03 11:25:35;;;;;;;5.53;1.30;;;15.40;1.00;;;;;;5065828;28;20157;-82
2022/10/03 11:28:35;;;;;;;3.60;1.13;;;15.40;99.90;;;;;;5066777;28;20144;-82
2022/10/03 11:31:38;;;;;;;3.20;1.23;;;15.50;1.00;;;;;;5047636;28;20211;-83
2022/10/03 11:34:25;;;;;;;5.27;1.03;;;15.50;1.00;;;;;;5062046;28;20206;-83
2022/10/03 11:37:22;;;;;;;6.60;1.70;;;15.60;99.20;;;;;;5062135;28;20151;-83
2022/10/03 11:40:13;;;;;;;6.77;2.40;;;15.60;99.90;;;;;;5062555;28;20183;-83
2022/10/03 11:43:11;;;;;;;8.53;2.13;;;15.60;1.00;;;;;;5061841;28;20194;-83
2022/10/03 11:45:50;;;;;;;6.00;1.50;;;15.70;99.90;;;;;;5060802;28;20171;-83
2022/10/03 11:48:30;;;;;;;6.63;1.83;;;15.80;66.60;;;;;;5063517;28;20160;-83
2022/10/03 11:51:22;;;;;;;11.10;1.83;;;15.90;1.00;;;;;;5063525;28;20200;-83
2022/10/03 11:54:13;;;;;;;7.83;2.37;;;16.00;1.00;;;;;;5071177;28;20175;-83
2022/10/03 11:56:44;;;;;;;5.57;1.73;;;16.10;1.00;;;;;;5075430;28;20159;-84
2022/10/03 11:59:37;;;;;;;7.53;1.87;;;16.10;99.90;;;;;;5068963;28;20198;-84
2022/10/03 12:02:09;;;;;;;8.00;1.97;;;16.10;1.00;;;;;;5036997;28;20224;-84
2022/10/03 12:04:43;;;;;;;6.97;2.10;;;16.10;99.90;;;;;;5056755;28;20533;-83
2022/10/03 12:10:02;;;;;;;5.70;1.80;;;16.30;98.70;;;;;;5056986;28;20222;-83
2022/10/03 12:12:44;;;;;;;7.03;1.63;;;16.40;99.90;;;;;;5057267;28;20192;-84
2022/10/03 12:15:37;;;;;;;5.23;1.60;;;16.40;1.00;;;;;;5056796;28;20255;-84
2022/10/03 12:18:09;;;;;;;8.10;1.77;;;16.50;1.00;;;;;;5056383;28;20228;-84
2022/10/03 12:20:57;;;;;;;4.23;1.57;;;16.50;90.70;;;;;;5058171;28;20210;-84
2022/10/03 12:23:31;;;;;;;7.50;1.77;;;16.50;2.80;;;;;;5057910;28;20683;-84
2022/10/03 12:26:01;;;;;;;6.80;1.13;;;16.60;1.00;;;;;;5057949;28;20174;-84
2022/10/03 12:28:40;;;;;;;2.97;1.10;;;16.70;99.90;;;;;;5057646;28;20181;-84
2022/10/03 12:31:22;;;;;;;6.43;1.20;;;16.70;99.90;;;;;;5056490;28;20253;-84
2022/10/03 12:34:12;;;;;;;4.73;1.20;;;16.70;1.00;;;;;;5054826;28;20159;-84
2022/10/03 12:37:12;;;;;;;4.33;1.43;;;16.70;29.60;;;;;;5057874;28;20153;-84
2022/10/03 12:39:53;;;;;;;7.93;1.37;;;16.60;1.00;;;;;;5048718;28;20203;-84
2022/10/03 12:42:19;;;;;;;7.43;1.67;;;16.70;1.00;;;;;;5057276;28;20195;-84
2022/10/03 12:44:54;;;;;;;3.20;1.10;;;16.70;1.00;;;;;;5058338;28;20179;-83
2022/10/03 12:47:44;;;;;;;3.63;1.20;;;16.60;99.90;;;;;;5057420;28;20179;-83
2022/10/03 12:50:34;;;;;;;4.53;1.20;;;16.60;99.90;;;;;;5059701;28;20629;-83
2022/10/03 12:53:15;;;;;;;2.77;1.10;;;16.50;99.90;;;;;;5056912;28;20175;-84
2022/10/03 12:56:03;;;;;;;7.53;1.00;;;16.40;99.90;;;;;;5059873;28;20231;-84
2022/10/03 12:59:09;;;;;;;3.40;1.33;;;16.40;99.90;;;;;;5057761;28;20756;-85
2022/10/03 13:01:52;;;;;;;6.33;1.30;;;16.50;99.90;;;;;;5046728;28;20256;-83
2022/10/03 13:04:36;;;;;;;4.13;1.10;;;16.70;1.00;;;;;;5053833;28;20202;-86
2022/10/03 13:07:19;;;;;;;2.20;0.97;;;16.70;99.90;;;;;;5054986;28;20247;-86
2022/10/03 13:10:26;;;;;;;6.50;1.17;;;16.70;1.00;;;;;;5055280;28;20183;-86
2022/10/03 13:13:06;;;;;;;4.90;1.13;;;16.80;1.00;;;;;;5058108;28;20209;-86
2022/10/03 13:15:44;;;;;;;3.17;1.17;;;16.80;99.90;;;;;;5063813;28;20156;-85
2022/10/03 13:18:17;;;;;;;7.77;1.00;;;16.80;1.00;;;;;;5066019;28;20170;-84
2022/10/03 13:20:56;;;;;;;6.13;1.07;;;16.80;59.70;;;;;;5064913;28;20198;-85
2022/10/03 13:23:41;;;;;;;5.93;1.23;;;16.80;1.00;;;;;;5064607;28;20171;-85
2022/10/03 13:26:14;;;;;;;4.90;1.10;;;16.90;99.90;;;;;;5064550;28;20155;-85
2022/10/03 13:28:46;;;;;;;8.53;1.40;;;16.90;1.00;;;;;;5061589;28;20144;-84
2022/10/03 13:31:32;;;;;;;4.13;1.23;;;16.80;1.00;;;;;;5060145;28;20200;-84
2022/10/03 13:34:03;;;;;;;7.37;1.17;;;16.80;99.90;;;;;;5058860;28;20164;-84
2022/10/03 13:36:53;;;;;;;4.97;1.23;;;16.70;99.90;;;;;;5057159;28;20172;-84
2022/10/03 13:39:39;;;;;;;2.60;0.90;;;16.70;1.00;;;;;;5059716;28;20167;-84
2022/10/03 13:42:20;;;;;;;3.30;1.10;;;16.60;1.00;;;;;;5060294;28;20227;-85
2022/10/03 13:44:56;;;;;;;3.37;0.97;;;16.60;1.00;;;;;;5064785;28;20163;-84
2022/10/03 13:47:30;;;;;;;6.43;1.37;;;16.60;1.00;;;;;;5055062;28;20220;-85
2022/10/03 13:50:00;;;;;;;4.40;1.17;;;16.70;17.50;;;;;;5053663;28;20178;-84
2022/10/03 13:53:12;;;;;;;5.97;1.10;;;16.60;99.90;;;;;;5053332;28;20200;-84
2022/10/03 13:56:00;;;;;;;2.93;0.80;;;16.60;99.90;;;;;;5033224;28;20219;-85
2022/10/03 13:58:56;;;;;;;2.77;0.77;;;16.60;1.00;;;;;;5016017;28;20168;-85
2022/10/03 14:02:02;;;;;;;5.87;1.03;;;16.70;54.40;;;;;;5051544;28;20294;-84
2022/10/03 14:05:13;;;;;;;4.77;1.00;;;16.80;99.20;;;;;;5055104;28;20152;-84
2022/10/03 14:07:58;;;;;;;5.17;1.00;;;16.80;10.10;;;;;;5045775;28;20194;-85
2022/10/03 14:10:57;;;;;;;3.00;1.03;;;16.80;99.90;;;;;;5052858;28;20630;-85
2022/10/03 14:13:42;;;;;;;5.57;1.37;;;17.00;1.00;;;;;;5042604;28;20278;-85
2022/10/03 14:16:30;;;;;;;4.80;1.03;;;17.00;99.90;;;;;;5052687;28;20164;-85
2022/10/03 14:19:15;;;;;;;2.30;0.90;;;17.00;1.00;;;;;;5054327;28;20156;-85
2022/10/03 14:22:06;;;;;;;2.57;0.93;;;16.90;1.00;;;;;;5052380;28;20714;-85
2022/10/03 14:24:41;;;;;;;4.87;1.20;;;16.80;1.00;;;;;;5054169;28;20656;-84
2022/10/03 14:27:39;;;;;;;4.90;1.00;;;16.80;1.00;;;;;;5053988;28;20539;-85
2022/10/03 14:30:18;;;;;;;3.27;1.03;;;16.80;4.10;;;;;;5052648;28;20171;-85
2022/10/03 14:33:16;;;;;;;3.27;1.07;;;16.70;99.90;;;;;;5053471;28;20577;-85
2022/10/03 14:36:03;;;;;;;5.10;1.07;;;16.60;99.90;;;;;;5054142;28;20217;-85
2022/10/03 14:39:02;;;;;;;4.40;1.00;;;16.60;99.90;;;;;;5053678;28;20206;-85
2022/10/03 14:41:58;;;;;;;5.93;1.10;;;16.50;99.90;;;;;;5053242;28;20725;-85
2022/10/03 14:44:43;;;;;;;3.10;0.80;;;16.40;30.90;;;;;;5055523;28;20633;-84
2022/10/03 14:47:17;;;;;;;2.57;0.80;;;16.50;1.00;;;;;;5054952;28;20156;-85